Alaska DOT
Hourly Weather Roundup - Girdwood Yard
GDW_YARD 12/16/2017
Click Here for Graph!
All data is provisional.

        DATE  TIME   Air  Wind  Wind  Wind  BATT   New   H2o  Snow   H2o   Rel Total
                    Temp   Spd   Dir  Gust  Volt  Snow  Inch Since Since  Hum% Depth
                      F   MPH   AVG   MPH   AVG   1HR   1HR  0600  0600   AVG   AVG

  12/16/2017 17:00    32     1    21     3 13.71   0.0  0.00   0.1  0.00    98 -0.33
  12/16/2017 16:00    33     1    18     3 13.70   0.0  0.00   0.1  0.00    98 -0.33
  12/16/2017 15:00    33     1    13     4 13.69   0.0  0.00   0.1  0.00    98 -0.33
  12/16/2017 14:00    33     1    62     2 13.70   0.0  0.00   0.1  0.00    98 -0.33
  12/16/2017 13:00    33     2    34     4 13.70   0.0  0.00   0.1  0.00    98 -0.33
  12/16/2017 12:00    33     1    23     4 13.70   0.1  0.00   0.1  0.00    98 -0.33
  12/16/2017 11:00    33     3    22     5 13.70   0.1  0.00   0.1  0.00    98 -0.33
  12/16/2017 10:00    33     3    25     6 13.70  -0.1  0.00  -0.1  0.00    98 -0.40
  12/16/2017 09:00    33     3    24     6 13.71   0.0  0.00   0.1  0.00    98 -0.53
  12/16/2017 08:00    33     3    20     6 13.71   0.0  0.00   0.1  0.00    97 -0.40
  12/16/2017 07:00    33     3    18     7 13.71   0.1  0.00   0.1  0.00    98 -0.40
  12/16/2017 06:00    32     3    22     6 13.71  -0.1  0.00   0.0  0.00    98 -0.40
  12/16/2017 05:00    33     3    19     7 13.70   0.2  0.00   0.1  0.57    97 -0.46
  12/16/2017 04:00    34     2   359     6 13.69  -0.1  0.00  -0.1  0.57    96 -0.33
  12/16/2017 03:00    34     2    25     7 13.69   0.4  0.00   0.0  0.57    94 -0.53
  12/16/2017 02:00    33     2    40     6 13.69  -0.2  0.01  -0.4  0.57    96 -0.40
  12/16/2017 01:00    33     3   209    14 13.68  -0.5  0.06  -0.2  0.56    95 -0.80
  12/15/2017 24:00    35     3   143    12 13.66   0.0  0.09   0.3  0.50    91 -0.59
  12/15/2017 23:00    37     4    22    15 13.65  -0.1  0.02   0.3  0.41    86 -0.12
  12/15/2017 22:00    37     6    18    23 13.65  -0.0  0.02   0.4  0.39    86 -0.12
  12/15/2017 21:00    37     6    22    22 13.65  -0.2  0.06   0.4  0.37    88 -0.05
  12/15/2017 20:00    37     5    27    19 13.64   0.1  0.06   0.6  0.31    88 -0.05
  12/15/2017 19:00    38     6    17    23 13.64   0.2  0.05   0.5  0.25    85  0.15
  12/15/2017 18:00    38     7    15    24 13.64  -0.2  0.06   0.3  0.20    83  0.09


Click Here for Graph!